sensor_id;sensor_type;location;lat;lon;timestamp;temperature;humidity
3860;DHT22;1945;52.036;8.614;2022-09-09T00:01:26;15.60;99.90
3860;DHT22;1945;52.036;8.614;2022-09-09T00:03:59;15.60;99.90
3860;DHT22;1945;52.036;8.614;2022-09-09T00:06:30;15.40;99.90
3860;DHT22;1945;52.036;8.614;2022-09-09T00:09:02;15.60;99.90
3860;DHT22;1945;52.036;8.614;2022-09-09T00:11:39;15.60;99.90
3860;DHT22;1945;52.036;8.614;2022-09-09T00:14:16;15.70;99.90
3860;DHT22;1945;52.036;8.614;2022-09-09T00:16:49;15.60;99.90
3860;DHT22;1945;52.036;8.614;2022-09-09T00:19:22;15.70;99.90
3860;DHT22;1945;52.036;8.614;2022-09-09T00:21:55;15.60;99.90
3860;DHT22;1945;52.036;8.614;2022-09-09T00:24:29;15.60;99.90
3860;DHT22;1945;52.036;8.614;2022-09-09T00:27:04;15.60;99.90
3860;DHT22;1945;52.036;8.614;2022-09-09T00:29:39;15.60;99.90
3860;DHT22;1945;52.036;8.614;2022-09-09T00:32:12;15.60;99.90
3860;DHT22;1945;52.036;8.614;2022-09-09T00:34:46;15.60;99.90
3860;DHT22;1945;52.036;8.614;2022-09-09T00:37:14;15.60;99.90
3860;DHT22;1945;52.036;8.614;2022-09-09T00:39:42;15.70;99.90
3860;DHT22;1945;52.036;8.614;2022-09-09T00:42:14;15.70;99.90
3860;DHT22;1945;52.036;8.614;2022-09-09T00:44:52;15.70;99.90
3860;DHT22;1945;52.036;8.614;2022-09-09T00:47:36;15.70;99.90
3860;DHT22;1945;52.036;8.614;2022-09-09T00:50:15;15.70;99.90
3860;DHT22;1945;52.036;8.614;2022-09-09T00:52:47;15.70;99.90
3860;DHT22;1945;52.036;8.614;2022-09-09T00:55:23;15.80;99.90
3860;DHT22;1945;52.036;8.614;2022-09-09T00:57:53;15.70;99.90
3860;DHT22;1945;52.036;8.614;2022-09-09T01:00:24;15.70;99.90
3860;DHT22;1945;52.036;8.614;2022-09-09T01:03:06;15.70;99.90
3860;DHT22;1945;52.036;8.614;2022-09-09T01:05:42;15.70;99.90
3860;DHT22;1945;52.036;8.614;2022-09-09T01:08:18;15.80;99.90
3860;DHT22;1945;52.036;8.614;2022-09-09T01:10:54;15.90;99.90
3860;DHT22;1945;52.036;8.614;2022-09-09T01:13:24;15.80;99.90
3860;DHT22;1945;52.036;8.614;2022-09-09T01:15:53;15.70;99.90
3860;DHT22;1945;52.036;8.614;2022-09-09T01:18:23;15.70;99.90
3860;DHT22;1945;52.036;8.614;2022-09-09T01:20:59;15.70;99.90
3860;DHT22;1945;52.036;8.614;2022-09-09T01:23:40;15.70;99.90
3860;DHT22;1945;52.036;8.614;2022-09-09T01:26:23;15.70;99.90
3860;DHT22;1945;52.036;8.614;2022-09-09T01:28:52;15.70;99.90
3860;DHT22;1945;52.036;8.614;2022-09-09T01:31:21;15.70;99.90
3860;DHT22;1945;52.036;8.614;2022-09-09T01:33:49;15.60;99.90
3860;DHT22;1945;52.036;8.614;2022-09-09T01:36:22;15.70;99.90
3860;DHT22;1945;52.036;8.614;2022-09-09T01:38:51;15.60;99.90
3860;DHT22;1945;52.036;8.614;2022-09-09T01:41:19;15.60;99.90
3860;DHT22;1945;52.036;8.614;2022-09-09T01:43:47;15.50;99.90
3860;DHT22;1945;52.036;8.614;2022-09-09T01:46:14;15.50;99.90
3860;DHT22;1945;52.036;8.614;2022-09-09T01:48:42;15.60;99.90
3860;DHT22;1945;52.036;8.614;2022-09-09T01:51:09;15.60;99.90
3860;DHT22;1945;52.036;8.614;2022-09-09T01:53:37;15.50;99.90
3860;DHT22;1945;52.036;8.614;2022-09-09T01:56:13;15.60;99.90
3860;DHT22;1945;52.036;8.614;2022-09-09T01:58:53;15.60;99.90
3860;DHT22;1945;52.036;8.614;2022-09-09T02:01:28;15.60;99.90
3860;DHT22;1945;52.036;8.614;2022-09-09T02:04:03;15.70;99.90
3860;DHT22;1945;52.036;8.614;2022-09-09T02:06:36;15.60;99.90
3860;DHT22;1945;52.036;8.614;2022-09-09T02:09:05;15.60;99.90
3860;DHT22;1945;52.036;8.614;2022-09-09T02:11:33;15.60;99.90
3860;DHT22;1945;52.036;8.614;2022-09-09T02:14:07;15.60;99.90
3860;DHT22;1945;52.036;8.614;2022-09-09T02:16:39;15.60;99.90
3860;DHT22;1945;52.036;8.614;2022-09-09T02:19:10;15.60;99.90
3860;DHT22;1945;52.036;8.614;2022-09-09T02:21:40;15.60;99.90
3860;DHT22;1945;52.036;8.614;2022-09-09T02:24:08;15.50;99.90
3860;DHT22;1945;52.036;8.614;2022-09-09T02:26:39;15.50;99.90
3860;DHT22;1945;52.036;8.614;2022-09-09T02:29:09;15.40;99.90
3860;DHT22;1945;52.036;8.614;2022-09-09T02:31:39;15.50;99.90
3860;DHT22;1945;52.036;8.614;2022-09-09T02:34:09;15.40;99.90
3860;DHT22;1945;52.036;8.614;2022-09-09T02:36:38;15.40;99.90
3860;DHT22;1945;52.036;8.614;2022-09-09T02:39:08;15.30;99.90
3860;DHT22;1945;52.036;8.614;2022-09-09T02:41:40;15.30;99.90
3860;DHT22;1945;52.036;8.614;2022-09-09T02:44:11;15.30;99.90
3860;DHT22;1945;52.036;8.614;2022-09-09T02:46:54;15.30;99.90
3860;DHT22;1945;52.036;8.614;2022-09-09T02:49:27;15.30;99.90
3860;DHT22;1945;52.036;8.614;2022-09-09T02:52:01;15.30;99.90
3860;DHT22;1945;52.036;8.614;2022-09-09T02:54:30;15.30;99.90
3860;DHT22;1945;52.036;8.614;2022-09-09T02:57:02;15.30;99.90
3860;DHT22;1945;52.036;8.614;2022-09-09T02:59:32;15.30;99.90
3860;DHT22;1945;52.036;8.614;2022-09-09T03:01:59;15.40;99.90
3860;DHT22;1945;52.036;8.614;2022-09-09T03:04:26;15.30;99.90
3860;DHT22;1945;52.036;8.614;2022-09-09T03:06:53;15.30;99.90
3860;DHT22;1945;52.036;8.614;2022-09-09T03:09:20;15.40;99.90
3860;DHT22;1945;52.036;8.614;2022-09-09T03:11:47;15.40;99.90
3860;DHT22;1945;52.036;8.614;2022-09-09T03:14:15;15.40;99.90
3860;DHT22;1945;52.036;8.614;2022-09-09T03:16:43;15.30;99.90
3860;DHT22;1945;52.036;8.614;2022-09-09T03:19:10;15.30;99.90
3860;DHT22;1945;52.036;8.614;2022-09-09T03:21:37;15.30;99.90
3860;DHT22;1945;52.036;8.614;2022-09-09T03:24:04;15.30;99.90
3860;DHT22;1945;52.036;8.614;2022-09-09T03:26:32;15.30;99.90
3860;DHT22;1945;52.036;8.614;2022-09-09T03:28:59;15.30;99.90
3860;DHT22;1945;52.036;8.614;2022-09-09T03:31:26;15.30;99.90
3860;DHT22;1945;52.036;8.614;2022-09-09T03:33:57;15.30;99.90
3860;DHT22;1945;52.036;8.614;2022-09-09T03:36:24;15.30;99.90
3860;DHT22;1945;52.036;8.614;2022-09-09T03:38:51;15.30;99.90
3860;DHT22;1945;52.036;8.614;2022-09-09T03:41:19;15.30;99.90
3860;DHT22;1945;52.036;8.614;2022-09-09T03:43:49;15.30;99.90
3860;DHT22;1945;52.036;8.614;2022-09-09T03:46:16;15.40;99.90
3860;DHT22;1945;52.036;8.614;2022-09-09T03:48:42;15.40;99.90
3860;DHT22;1945;52.036;8.614;2022-09-09T03:51:10;15.40;99.90
3860;DHT22;1945;52.036;8.614;2022-09-09T03:53:37;15.40;99.90
3860;DHT22;1945;52.036;8.614;2022-09-09T03:56:05;15.40;99.90
3860;DHT22;1945;52.036;8.614;2022-09-09T03:58:33;15.40;99.90
3860;DHT22;1945;52.036;8.614;2022-09-09T04:01:01;15.50;99.90
3860;DHT22;1945;52.036;8.614;2022-09-09T04:03:28;15.40;99.90
3860;DHT22;1945;52.036;8.614;2022-09-09T04:05:58;15.50;99.90
3860;DHT22;1945;52.036;8.614;2022-09-09T04:08:27;15.40;99.90
3860;DHT22;1945;52.036;8.614;2022-09-09T04:10:54;15.50;99.90
3860;DHT22;1945;52.036;8.614;2022-09-09T04:13:24;15.50;99.90
3860;DHT22;1945;52.036;8.614;2022-09-09T04:15:52;15.50;99.90
3860;DHT22;1945;52.036;8.614;2022-09-09T04:18:20;15.50;99.90
3860;DHT22;1945;52.036;8.614;2022-09-09T04:20:47;15.50;99.90
3860;DHT22;1945;52.036;8.614;2022-09-09T04:23:14;15.50;99.90
3860;DHT22;1945;52.036;8.614;2022-09-09T04:25:45;15.50;99.90
3860;DHT22;1945;52.036;8.614;2022-09-09T04:28:12;15.50;99.90
3860;DHT22;1945;52.036;8.614;2022-09-09T04:30:39;15.50;99.90
3860;DHT22;1945;52.036;8.614;2022-09-09T04:33:06;15.50;99.90
3860;DHT22;1945;52.036;8.614;2022-09-09T04:35:32;15.50;99.90
3860;DHT22;1945;52.036;8.614;2022-09-09T04:37:59;15.50;99.90
3860;DHT22;1945;52.036;8.614;2022-09-09T04:40:28;15.60;99.90
3860;DHT22;1945;52.036;8.614;2022-09-09T04:42:57;15.60;99.90
3860;DHT22;1945;52.036;8.614;2022-09-09T04:45:24;15.60;99.90
3860;DHT22;1945;52.036;8.614;2022-09-09T04:47:51;15.60;99.90
3860;DHT22;1945;52.036;8.614;2022-09-09T04:50:18;15.50;99.90
3860;DHT22;1945;52.036;8.614;2022-09-09T04:52:45;15.50;99.90
3860;DHT22;1945;52.036;8.614;2022-09-09T04:55:12;15.40;99.90
3860;DHT22;1945;52.036;8.614;2022-09-09T04:57:39;15.40;99.90
3860;DHT22;1945;52.036;8.614;2022-09-09T05:00:08;15.40;99.90
3860;DHT22;1945;52.036;8.614;2022-09-09T05:02:37;15.40;99.90
3860;DHT22;1945;52.036;8.614;2022-09-09T05:05:05;15.40;99.90
3860;DHT22;1945;52.036;8.614;2022-09-09T05:07:32;15.40;99.90
3860;DHT22;1945;52.036;8.614;2022-09-09T05:09:59;15.40;99.90
3860;DHT22;1945;52.036;8.614;2022-09-09T05:12:25;15.40;99.90
3860;DHT22;1945;52.036;8.614;2022-09-09T05:14:52;15.60;99.90
3860;DHT22;1945;52.036;8.614;2022-09-09T05:17:20;15.30;99.90
3860;DHT22;1945;52.036;8.614;2022-09-09T05:19:47;15.30;99.90
3860;DHT22;1945;52.036;8.614;2022-09-09T05:22:18;15.30;99.90
3860;DHT22;1945;52.036;8.614;2022-09-09T05:24:46;15.40;99.90
3860;DHT22;1945;52.036;8.614;2022-09-09T05:27:16;15.70;99.90
3860;DHT22;1945;52.036;8.614;2022-09-09T05:29:43;15.40;99.90
3860;DHT22;1945;52.036;8.614;2022-09-09T05:32:10;15.40;99.90
3860;DHT22;1945;52.036;8.614;2022-09-09T05:34:38;15.40;99.90
3860;DHT22;1945;52.036;8.614;2022-09-09T05:37:05;15.40;99.90
3860;DHT22;1945;52.036;8.614;2022-09-09T05:39:33;15.50;99.90
3860;DHT22;1945;52.036;8.614;2022-09-09T05:42:01;15.50;99.90
3860;DHT22;1945;52.036;8.614;2022-09-09T05:44:30;15.50;99.90
3860;DHT22;1945;52.036;8.614;2022-09-09T05:46:56;15.60;99.90
3860;DHT22;1945;52.036;8.614;2022-09-09T05:49:23;15.70;99.90
3860;DHT22;1945;52.036;8.614;2022-09-09T05:51:51;15.80;99.90
3860;DHT22;1945;52.036;8.614;2022-09-09T05:54:18;15.80;99.90
3860;DHT22;1945;52.036;8.614;2022-09-09T05:56:45;16.10;99.90
3860;DHT22;1945;52.036;8.614;2022-09-09T05:59:12;16.10;99.90
3860;DHT22;1945;52.036;8.614;2022-09-09T06:01:38;16.20;99.90
3860;DHT22;1945;52.036;8.614;2022-09-09T06:04:06;16.30;99.90
3860;DHT22;1945;52.036;8.614;2022-09-09T06:06:35;16.40;99.90
3860;DHT22;1945;52.036;8.614;2022-09-09T06:09:05;16.90;99.90
3860;DHT22;1945;52.036;8.614;2022-09-09T06:11:36;17.20;99.90
3860;DHT22;1945;52.036;8.614;2022-09-09T06:14:03;17.60;99.90
3860;DHT22;1945;52.036;8.614;2022-09-09T06:16:31;17.80;99.90
3860;DHT22;1945;52.036;8.614;2022-09-09T06:18:59;17.80;99.90
3860;DHT22;1945;52.036;8.614;2022-09-09T06:21:27;17.60;99.90
3860;DHT22;1945;52.036;8.614;2022-09-09T06:23:56;17.80;99.90
3860;DHT22;1945;52.036;8.614;2022-09-09T06:26:25;17.90;99.90
3860;DHT22;1945;52.036;8.614;2022-09-09T06:28:54;17.90;99.90
3860;DHT22;1945;52.036;8.614;2022-09-09T06:31:22;18.00;99.90
3860;DHT22;1945;52.036;8.614;2022-09-09T06:33:50;18.40;85.60
3860;DHT22;1945;52.036;8.614;2022-09-09T06:36:20;19.20;28.50
3860;DHT22;1945;52.036;8.614;2022-09-09T06:38:47;19.50;1.00
3860;DHT22;1945;52.036;8.614;2022-09-09T06:41:15;19.90;1.00
3860;DHT22;1945;52.036;8.614;2022-09-09T06:43:43;20.20;99.90
3860;DHT22;1945;52.036;8.614;2022-09-09T06:46:12;20.20;99.90
3860;DHT22;1945;52.036;8.614;2022-09-09T06:48:39;20.90;99.90
3860;DHT22;1945;52.036;8.614;2022-09-09T06:51:08;20.00;99.90
3860;DHT22;1945;52.036;8.614;2022-09-09T06:53:36;20.60;99.90
3860;DHT22;1945;52.036;8.614;2022-09-09T06:56:18;20.20;1.00
3860;DHT22;1945;52.036;8.614;2022-09-09T06:58:47;20.30;30.10
3860;DHT22;1945;52.036;8.614;2022-09-09T07:01:15;20.00;99.90
3860;DHT22;1945;52.036;8.614;2022-09-09T07:03:45;19.80;99.90
3860;DHT22;1945;52.036;8.614;2022-09-09T07:06:14;19.70;99.90
3860;DHT22;1945;52.036;8.614;2022-09-09T07:08:42;19.60;99.90
3860;DHT22;1945;52.036;8.614;2022-09-09T07:11:09;19.50;99.90
3860;DHT22;1945;52.036;8.614;2022-09-09T07:13:37;19.30;1.00
3860;DHT22;1945;52.036;8.614;2022-09-09T07:16:06;19.40;99.90
3860;DHT22;1945;52.036;8.614;2022-09-09T07:18:33;19.30;99.90
3860;DHT22;1945;52.036;8.614;2022-09-09T07:21:01;19.20;1.00
3860;DHT22;1945;52.036;8.614;2022-09-09T07:23:28;19.20;1.00
3860;DHT22;1945;52.036;8.614;2022-09-09T07:25:56;19.10;1.00
3860;DHT22;1945;52.036;8.614;2022-09-09T07:28:23;19.00;1.00
3860;DHT22;1945;52.036;8.614;2022-09-09T07:30:54;19.00;1.00
3860;DHT22;1945;52.036;8.614;2022-09-09T07:33:23;18.90;1.00
3860;DHT22;1945;52.036;8.614;2022-09-09T07:35:50;19.00;1.00
3860;DHT22;1945;52.036;8.614;2022-09-09T07:38:17;19.10;1.00
3860;DHT22;1945;52.036;8.614;2022-09-09T07:40:45;19.00;99.90
3860;DHT22;1945;52.036;8.614;2022-09-09T07:43:11;19.00;1.00
3860;DHT22;1945;52.036;8.614;2022-09-09T07:45:38;19.00;1.00
3860;DHT22;1945;52.036;8.614;2022-09-09T07:48:06;19.00;1.00
3860;DHT22;1945;52.036;8.614;2022-09-09T07:50:34;19.00;1.00
3860;DHT22;1945;52.036;8.614;2022-09-09T07:53:00;18.90;1.00
3860;DHT22;1945;52.036;8.614;2022-09-09T07:55:28;18.90;1.00
3860;DHT22;1945;52.036;8.614;2022-09-09T07:57:55;18.90;1.00
3860;DHT22;1945;52.036;8.614;2022-09-09T08:00:22;19.00;1.00
3860;DHT22;1945;52.036;8.614;2022-09-09T08:02:49;19.10;1.00
3860;DHT22;1945;52.036;8.614;2022-09-09T08:05:16;19.10;1.00
3860;DHT22;1945;52.036;8.614;2022-09-09T08:07:44;19.10;1.00
3860;DHT22;1945;52.036;8.614;2022-09-09T08:10:12;19.10;1.00
3860;DHT22;1945;52.036;8.614;2022-09-09T08:12:40;19.20;1.00
3860;DHT22;1945;52.036;8.614;2022-09-09T08:15:07;19.10;1.00
3860;DHT22;1945;52.036;8.614;2022-09-09T08:17:34;19.30;1.00
3860;DHT22;1945;52.036;8.614;2022-09-09T08:20:03;19.40;1.00
3860;DHT22;1945;52.036;8.614;2022-09-09T08:22:32;19.50;99.90
3860;DHT22;1945;52.036;8.614;2022-09-09T08:25:01;19.70;99.90
3860;DHT22;1945;52.036;8.614;2022-09-09T08:27:27;19.80;1.00
3860;DHT22;1945;52.036;8.614;2022-09-09T08:29:54;20.00;99.90
3860;DHT22;1945;52.036;8.614;2022-09-09T08:32:21;20.00;99.90
3860;DHT22;1945;52.036;8.614;2022-09-09T08:34:48;20.10;33.40
3860;DHT22;1945;52.036;8.614;2022-09-09T08:37:15;20.00;99.90
3860;DHT22;1945;52.036;8.614;2022-09-09T08:39:41;20.30;99.90
3860;DHT22;1945;52.036;8.614;2022-09-09T08:42:35;20.70;1.00
3860;DHT22;1945;52.036;8.614;2022-09-09T08:45:16;20.90;1.00
3860;DHT22;1945;52.036;8.614;2022-09-09T08:47:53;20.80;1.00
3860;DHT22;1945;52.036;8.614;2022-09-09T08:50:24;20.70;1.00
3860;DHT22;1945;52.036;8.614;2022-09-09T08:52:56;20.80;1.00
3860;DHT22;1945;52.036;8.614;2022-09-09T08:55:35;20.80;1.00
3860;DHT22;1945;52.036;8.614;2022-09-09T08:58:11;20.70;1.00
3860;DHT22;1945;52.036;8.614;2022-09-09T09:03:31;19.90;1.00
3860;DHT22;1945;52.036;8.614;2022-09-09T09:06:06;19.90;1.00
3860;DHT22;1945;52.036;8.614;2022-09-09T09:08:39;19.90;1.00
3860;DHT22;1945;52.036;8.614;2022-09-09T09:11:09;20.20;1.00
3860;DHT22;1945;52.036;8.614;2022-09-09T09:13:43;20.50;1.00
3860;DHT22;1945;52.036;8.614;2022-09-09T09:16:17;20.60;1.00
3860;DHT22;1945;52.036;8.614;2022-09-09T09:18:47;20.90;1.00
3860;DHT22;1945;52.036;8.614;2022-09-09T09:21:16;21.10;99.90
3860;DHT22;1945;52.036;8.614;2022-09-09T09:23:51;21.10;1.00
3860;DHT22;1945;52.036;8.614;2022-09-09T09:26:21;20.60;99.90
3860;DHT22;1945;52.036;8.614;2022-09-09T09:28:53;20.30;1.00
3860;DHT22;1945;52.036;8.614;2022-09-09T09:31:21;20.10;1.00
3860;DHT22;1945;52.036;8.614;2022-09-09T09:33:52;20.20;1.00
3860;DHT22;1945;52.036;8.614;2022-09-09T09:36:20;20.50;1.00
3860;DHT22;1945;52.036;8.614;2022-09-09T09:38:55;20.40;99.90
3860;DHT22;1945;52.036;8.614;2022-09-09T09:41:33;20.30;99.90
3860;DHT22;1945;52.036;8.614;2022-09-09T09:44:02;20.20;1.00
3860;DHT22;1945;52.036;8.614;2022-09-09T09:46:30;20.30;1.00
3860;DHT22;1945;52.036;8.614;2022-09-09T09:48:58;20.20;99.90
3860;DHT22;1945;52.036;8.614;2022-09-09T09:51:26;20.20;99.90
3860;DHT22;1945;52.036;8.614;2022-09-09T09:53:53;20.00;1.00
3860;DHT22;1945;52.036;8.614;2022-09-09T09:56:27;19.90;1.00
3860;DHT22;1945;52.036;8.614;2022-09-09T09:58:55;19.70;1.00
3860;DHT22;1945;52.036;8.614;2022-09-09T10:01:25;19.50;1.00
3860;DHT22;1945;52.036;8.614;2022-09-09T10:03:55;19.60;1.00
3860;DHT22;1945;52.036;8.614;2022-09-09T10:06:30;19.40;1.00
3860;DHT22;1945;52.036;8.614;2022-09-09T10:08:57;19.60;1.00
3860;DHT22;1945;52.036;8.614;2022-09-09T10:11:30;19.50;1.00
3860;DHT22;1945;52.036;8.614;2022-09-09T10:14:08;19.70;1.00
3860;DHT22;1945;52.036;8.614;2022-09-09T10:16:54;19.90;1.00
3860;DHT22;1945;52.036;8.614;2022-09-09T10:19:30;20.90;99.90
3860;DHT22;1945;52.036;8.614;2022-09-09T10:22:04;21.40;1.00
3860;DHT22;1945;52.036;8.614;2022-09-09T10:27:32;21.60;1.00
3860;DHT22;1945;52.036;8.614;2022-09-09T10:30:10;21.70;1.00
3860;DHT22;1945;52.036;8.614;2022-09-09T10:32:44;21.60;1.00
3860;DHT22;1945;52.036;8.614;2022-09-09T10:35:19;22.00;1.00
3860;DHT22;1945;52.036;8.614;2022-09-09T10:41:05;22.20;99.90
3860;DHT22;1945;52.036;8.614;2022-09-09T10:44:00;22.10;99.90
3860;DHT22;1945;52.036;8.614;2022-09-09T10:46:42;21.90;1.00
3860;DHT22;1945;52.036;8.614;2022-09-09T10:49:20;21.70;1.00
3860;DHT22;1945;52.036;8.614;2022-09-09T10:51:55;22.00;99.90
3860;DHT22;1945;52.036;8.614;2022-09-09T10:54:31;22.00;99.90
3860;DHT22;1945;52.036;8.614;2022-09-09T10:57:03;21.70;1.00
3860;DHT22;1945;52.036;8.614;2022-09-09T10:59:35;21.90;1.00
3860;DHT22;1945;52.036;8.614;2022-09-09T11:02:07;22.00;1.00
3860;DHT22;1945;52.036;8.614;2022-09-09T11:04:44;22.10;99.90
3860;DHT22;1945;52.036;8.614;2022-09-09T11:07:18;22.10;99.90
3860;DHT22;1945;52.036;8.614;2022-09-09T11:09:54;21.90;99.90
3860;DHT22;1945;52.036;8.614;2022-09-09T11:12:23;21.80;99.90
3860;DHT22;1945;52.036;8.614;2022-09-09T11:14:55;21.70;1.00
3860;DHT22;1945;52.036;8.614;2022-09-09T11:17:30;22.10;1.00
3860;DHT22;1945;52.036;8.614;2022-09-09T11:20:01;22.20;99.90
3860;DHT22;1945;52.036;8.614;2022-09-09T11:22:31;22.30;99.90
3860;DHT22;1945;52.036;8.614;2022-09-09T11:25:03;22.20;99.90
3860;DHT22;1945;52.036;8.614;2022-09-09T11:27:38;22.20;99.90
3860;DHT22;1945;52.036;8.614;2022-09-09T11:30:18;22.10;99.90
3860;DHT22;1945;52.036;8.614;2022-09-09T11:33:07;22.00;99.90
3860;DHT22;1945;52.036;8.614;2022-09-09T11:35:47;21.90;99.90
3860;DHT22;1945;52.036;8.614;2022-09-09T11:38:19;22.00;99.90
3860;DHT22;1945;52.036;8.614;2022-09-09T11:40:47;21.80;99.90
3860;DHT22;1945;52.036;8.614;2022-09-09T11:43:24;21.80;1.00
3860;DHT22;1945;52.036;8.614;2022-09-09T11:45:54;21.60;99.90
3860;DHT22;1945;52.036;8.614;2022-09-09T11:48:26;21.90;99.90
3860;DHT22;1945;52.036;8.614;2022-09-09T11:51:01;21.60;1.00
3860;DHT22;1945;52.036;8.614;2022-09-09T11:53:29;21.20;1.00
3860;DHT22;1945;52.036;8.614;2022-09-09T11:56:04;21.10;1.00
3860;DHT22;1945;52.036;8.614;2022-09-09T11:58:37;21.00;1.00
3860;DHT22;1945;52.036;8.614;2022-09-09T12:01:25;21.00;1.00
3860;DHT22;1945;52.036;8.614;2022-09-09T12:04:06;20.90;1.00
3860;DHT22;1945;52.036;8.614;2022-09-09T12:06:44;21.00;1.00
3860;DHT22;1945;52.036;8.614;2022-09-09T12:09:23;21.10;1.00
3860;DHT22;1945;52.036;8.614;2022-09-09T12:11:51;21.00;1.00
3860;DHT22;1945;52.036;8.614;2022-09-09T12:14:23;21.10;1.00
3860;DHT22;1945;52.036;8.614;2022-09-09T12:17:09;21.40;99.90
3860;DHT22;1945;52.036;8.614;2022-09-09T12:19:36;21.70;99.90
3860;DHT22;1945;52.036;8.614;2022-09-09T12:22:07;21.90;99.90
3860;DHT22;1945;52.036;8.614;2022-09-09T12:24:43;22.20;55.70
3860;DHT22;1945;52.036;8.614;2022-09-09T12:27:20;22.30;99.90
3860;DHT22;1945;52.036;8.614;2022-09-09T12:29:55;22.50;99.90
3860;DHT22;1945;52.036;8.614;2022-09-09T12:32:25;22.50;1.00
3860;DHT22;1945;52.036;8.614;2022-09-09T12:34:53;22.30;1.00
3860;DHT22;1945;52.036;8.614;2022-09-09T12:37:28;22.50;1.00
3860;DHT22;1945;52.036;8.614;2022-09-09T12:39:57;22.80;1.00
3860;DHT22;1945;52.036;8.614;2022-09-09T12:42:25;22.60;99.90
3860;DHT22;1945;52.036;8.614;2022-09-09T12:44:57;22.50;99.90
3860;DHT22;1945;52.036;8.614;2022-09-09T12:47:31;22.50;99.90
3860;DHT22;1945;52.036;8.614;2022-09-09T12:50:01;22.40;99.90
3860;DHT22;1945;52.036;8.614;2022-09-09T12:52:32;22.50;1.00
3860;DHT22;1945;52.036;8.614;2022-09-09T12:55:00;22.50;1.00
3860;DHT22;1945;52.036;8.614;2022-09-09T12:57:33;22.40;1.00
3860;DHT22;1945;52.036;8.614;2022-09-09T13:00:06;22.30;1.00
3860;DHT22;1945;52.036;8.614;2022-09-09T13:02:35;22.40;1.00
3860;DHT22;1945;52.036;8.614;2022-09-09T13:05:15;22.60;1.00
3860;DHT22;1945;52.036;8.614;2022-09-09T13:07:44;22.60;1.00
3860;DHT22;1945;52.036;8.614;2022-09-09T13:10:20;22.60;1.00
3860;DHT22;1945;52.036;8.614;2022-09-09T13:12:48;22.60;1.00
3860;DHT22;1945;52.036;8.614;2022-09-09T13:15:20;22.60;1.00
3860;DHT22;1945;52.036;8.614;2022-09-09T13:17:58;22.70;1.00
3860;DHT22;1945;52.036;8.614;2022-09-09T13:20:26;22.70;99.90
3860;DHT22;1945;52.036;8.614;2022-09-09T13:22:55;23.00;1.00
3860;DHT22;1945;52.036;8.614;2022-09-09T13:25:25;23.20;1.00
3860;DHT22;1945;52.036;8.614;2022-09-09T13:27:55;22.80;1.00
3860;DHT22;1945;52.036;8.614;2022-09-09T13:30:24;22.40;1.00
3860;DHT22;1945;52.036;8.614;2022-09-09T13:33:19;22.40;1.00
3860;DHT22;1945;52.036;8.614;2022-09-09T13:35:50;22.30;1.00
3860;DHT22;1945;52.036;8.614;2022-09-09T13:38:18;22.20;1.00
3860;DHT22;1945;52.036;8.614;2022-09-09T13:40:58;22.40;96.90
3860;DHT22;1945;52.036;8.614;2022-09-09T13:43:28;22.10;1.00
3860;DHT22;1945;52.036;8.614;2022-09-09T13:45:57;22.30;1.00
3860;DHT22;1945;52.036;8.614;2022-09-09T13:48:25;22.50;99.90
3860;DHT22;1945;52.036;8.614;2022-09-09T13:51:00;22.70;99.90
3860;DHT22;1945;52.036;8.614;2022-09-09T13:53:28;22.70;99.90
3860;DHT22;1945;52.036;8.614;2022-09-09T13:55:56;22.60;93.70
3860;DHT22;1945;52.036;8.614;2022-09-09T13:58:23;22.70;55.40
3860;DHT22;1945;52.036;8.614;2022-09-09T14:00:51;22.90;99.90
3860;DHT22;1945;52.036;8.614;2022-09-09T14:03:18;22.80;96.90
3860;DHT22;1945;52.036;8.614;2022-09-09T14:05:45;22.70;35.70
3860;DHT22;1945;52.036;8.614;2022-09-09T14:08:18;22.70;99.90
3860;DHT22;1945;52.036;8.614;2022-09-09T14:10:48;22.70;99.90
3860;DHT22;1945;52.036;8.614;2022-09-09T14:13:14;22.60;59.00
3860;DHT22;1945;52.036;8.614;2022-09-09T14:15:41;22.70;99.90
3860;DHT22;1945;52.036;8.614;2022-09-09T14:18:10;22.70;99.90
3860;DHT22;1945;52.036;8.614;2022-09-09T14:20:37;22.60;85.40
3860;DHT22;1945;52.036;8.614;2022-09-09T14:23:04;22.70;59.00
3860;DHT22;1945;52.036;8.614;2022-09-09T14:25:31;22.70;99.90
3860;DHT22;1945;52.036;8.614;2022-09-09T14:28:00;22.60;68.10
3860;DHT22;1945;52.036;8.614;2022-09-09T14:30:27;22.50;99.90
3860;DHT22;1945;52.036;8.614;2022-09-09T14:32:54;22.50;99.90
3860;DHT22;1945;52.036;8.614;2022-09-09T14:35:21;22.30;99.90
3860;DHT22;1945;52.036;8.614;2022-09-09T14:37:47;22.30;99.90
3860;DHT22;1945;52.036;8.614;2022-09-09T14:40:14;22.30;99.90
3860;DHT22;1945;52.036;8.614;2022-09-09T14:42:41;22.30;99.90
3860;DHT22;1945;52.036;8.614;2022-09-09T14:45:11;22.40;99.90
3860;DHT22;1945;52.036;8.614;2022-09-09T14:47:37;22.20;99.90
3860;DHT22;1945;52.036;8.614;2022-09-09T14:50:05;22.30;99.90
3860;DHT22;1945;52.036;8.614;2022-09-09T14:52:33;22.40;99.90
3860;DHT22;1945;52.036;8.614;2022-09-09T14:55:00;22.40;99.90
3860;DHT22;1945;52.036;8.614;2022-09-09T14:57:26;22.30;99.90
3860;DHT22;1945;52.036;8.614;2022-09-09T14:59:53;22.30;99.90
3860;DHT22;1945;52.036;8.614;2022-09-09T15:02:21;22.30;99.90
3860;DHT22;1945;52.036;8.614;2022-09-09T15:04:48;22.10;99.90
3860;DHT22;1945;52.036;8.614;2022-09-09T15:07:15;22.20;99.90
3860;DHT22;1945;52.036;8.614;2022-09-09T15:09:44;22.00;99.90
3860;DHT22;1945;52.036;8.614;2022-09-09T15:12:13;22.00;1.00
3860;DHT22;1945;52.036;8.614;2022-09-09T15:14:40;22.00;1.00
3860;DHT22;1945;52.036;8.614;2022-09-09T15:17:06;21.90;1.00
3860;DHT22;1945;52.036;8.614;2022-09-09T15:19:34;22.00;1.00
3860;DHT22;1945;52.036;8.614;2022-09-09T15:22:02;21.90;1.00
3860;DHT22;1945;52.036;8.614;2022-09-09T15:24:30;21.90;1.00
3860;DHT22;1945;52.036;8.614;2022-09-09T15:26:57;21.80;1.00
3860;DHT22;1945;52.036;8.614;2022-09-09T15:29:24;21.80;1.00
3860;DHT22;1945;52.036;8.614;2022-09-09T15:31:51;21.80;1.00
3860;DHT22;1945;52.036;8.614;2022-09-09T15:34:19;21.80;1.00
3860;DHT22;1945;52.036;8.614;2022-09-09T15:36:47;21.70;1.00
3860;DHT22;1945;52.036;8.614;2022-09-09T15:39:16;21.70;1.00
3860;DHT22;1945;52.036;8.614;2022-09-09T15:41:43;21.70;1.00
3860;DHT22;1945;52.036;8.614;2022-09-09T15:44:10;21.70;1.00
3860;DHT22;1945;52.036;8.614;2022-09-09T15:46:39;21.70;1.00
3860;DHT22;1945;52.036;8.614;2022-09-09T15:49:08;21.70;1.00
3860;DHT22;1945;52.036;8.614;2022-09-09T15:51:36;21.60;1.00
3860;DHT22;1945;52.036;8.614;2022-09-09T15:54:04;21.60;1.00
3860;DHT22;1945;52.036;8.614;2022-09-09T15:56:31;21.60;1.00
3860;DHT22;1945;52.036;8.614;2022-09-09T15:59:01;21.60;1.00
3860;DHT22;1945;52.036;8.614;2022-09-09T16:01:29;21.60;46.10
3860;DHT22;1945;52.036;8.614;2022-09-09T16:03:57;21.60;1.00
3860;DHT22;1945;52.036;8.614;2022-09-09T16:06:25;21.60;38.90
3860;DHT22;1945;52.036;8.614;2022-09-09T16:08:53;21.50;1.00
3860;DHT22;1945;52.036;8.614;2022-09-09T16:11:23;21.50;1.00
3860;DHT22;1945;52.036;8.614;2022-09-09T16:13:51;21.50;1.00
3860;DHT22;1945;52.036;8.614;2022-09-09T16:16:20;21.40;99.90
3860;DHT22;1945;52.036;8.614;2022-09-09T16:18:50;21.30;99.90
3860;DHT22;1945;52.036;8.614;2022-09-09T16:21:20;21.20;45.00
3860;DHT22;1945;52.036;8.614;2022-09-09T16:23:48;21.20;99.90
3860;DHT22;1945;52.036;8.614;2022-09-09T16:26:17;21.10;67.90
3860;DHT22;1945;52.036;8.614;2022-09-09T16:28:45;21.00;99.90
3860;DHT22;1945;52.036;8.614;2022-09-09T16:31:14;21.00;99.90
3860;DHT22;1945;52.036;8.614;2022-09-09T16:33:41;20.90;99.90
3860;DHT22;1945;52.036;8.614;2022-09-09T16:36:10;20.90;99.90